sensor_id;sensor_type;location;lat;lon;timestamp;pressure;altitude;pressure_sealevel;temperature;humidity
66887;BME280;53798;51.680;5.976;2022-12-07T00:01:41;101698.31;;;3.35;100.00
66887;BME280;53798;51.680;5.976;2022-12-07T00:04:15;101695.78;;;3.41;100.00
66887;BME280;53798;51.680;5.976;2022-12-07T00:06:45;101698.44;;;3.44;100.00
66887;BME280;53798;51.680;5.976;2022-12-07T00:09:17;101690.63;;;3.47;100.00
66887;BME280;53798;51.680;5.976;2022-12-07T00:11:48;101692.41;;;3.50;100.00
66887;BME280;53798;51.680;5.976;2022-12-07T00:14:18;101695.84;;;3.47;100.00
66887;BME280;53798;51.680;5.976;2022-12-07T00:16:48;101701.84;;;3.41;100.00
66887;BME280;53798;51.680;5.976;2022-12-07T00:19:18;101686.97;;;3.33;100.00
66887;BME280;53798;51.680;5.976;2022-12-07T00:21:45;101686.88;;;3.25;100.00
66887;BME280;53798;51.680;5.976;2022-12-07T00:24:12;101686.75;;;3.17;100.00
66887;BME280;53798;51.680;5.976;2022-12-07T00:26:40;101689.28;;;3.11;100.00
66887;BME280;53798;51.680;5.976;2022-12-07T00:29:19;101686.63;;;3.08;100.00
66887;BME280;53798;51.680;5.976;2022-12-07T00:31:48;101684.78;;;3.01;100.00
66887;BME280;53798;51.680;5.976;2022-12-07T00:34:19;101682.19;;;3.01;100.00
66887;BME280;53798;51.680;5.976;2022-12-07T00:36:48;101677.81;;;3.00;100.00
66887;BME280;53798;51.680;5.976;2022-12-07T00:39:16;101683.06;;;3.01;100.00
66887;BME280;53798;51.680;5.976;2022-12-07T00:41:43;101680.44;;;3.00;100.00
66887;BME280;53798;51.680;5.976;2022-12-07T00:44:10;101674.38;;;2.99;100.00
66887;BME280;53798;51.680;5.976;2022-12-07T00:46:38;101681.28;;;2.97;100.00
66887;BME280;53798;51.680;5.976;2022-12-07T00:49:05;101677.75;;;2.95;100.00
66887;BME280;53798;51.680;5.976;2022-12-07T00:51:32;101678.53;;;2.89;100.00
66887;BME280;53798;51.680;5.976;2022-12-07T00:53:59;101667.25;;;2.89;100.00
66887;BME280;53798;51.680;5.976;2022-12-07T00:56:28;101668.06;;;2.85;100.00
66887;BME280;53798;51.680;5.976;2022-12-07T00:58:58;101668.91;;;2.84;100.00
66887;BME280;53798;51.680;5.976;2022-12-07T01:01:30;101664.53;;;2.79;100.00
66887;BME280;53798;51.680;5.976;2022-12-07T01:04:01;101674.94;;;2.79;100.00
66887;BME280;53798;51.680;5.976;2022-12-07T01:06:29;101664.44;;;2.75;100.00
66887;BME280;53798;51.680;5.976;2022-12-07T01:08:59;101666.13;;;2.71;100.00
66887;BME280;53798;51.680;5.976;2022-12-07T01:11:29;101660.81;;;2.65;100.00
66887;BME280;53798;51.680;5.976;2022-12-07T01:13:58;101671.16;;;2.59;100.00
66887;BME280;53798;51.680;5.976;2022-12-07T01:16:29;101663.22;;;2.53;100.00
66887;BME280;53798;51.680;5.976;2022-12-07T01:18:59;101674.47;;;2.50;100.00
66887;BME280;53798;51.680;5.976;2022-12-07T01:21:30;101679.59;;;2.45;100.00
66887;BME280;53798;51.680;5.976;2022-12-07T01:24:08;101670.88;;;2.42;100.00
66887;BME280;53798;51.680;5.976;2022-12-07T01:26:37;101668.19;;;2.37;100.00
66887;BME280;53798;51.680;5.976;2022-12-07T01:29:06;101678.53;;;2.32;100.00
66887;BME280;53798;51.680;5.976;2022-12-07T01:31:33;101674.16;;;2.31;100.00
66887;BME280;53798;51.680;5.976;2022-12-07T01:34:01;101672.41;;;2.29;100.00
66887;BME280;53798;51.680;5.976;2022-12-07T01:36:30;101676.66;;;2.25;100.00
66887;BME280;53798;51.680;5.976;2022-12-07T01:39:02;101676.66;;;2.25;100.00
66887;BME280;53798;51.680;5.976;2022-12-07T01:41:34;101679.25;;;2.25;100.00
66887;BME280;53798;51.680;5.976;2022-12-07T01:49:24;101681.66;;;2.13;100.00
66887;BME280;53798;51.680;5.976;2022-12-07T01:52:17;101676.38;;;2.08;100.00
66887;BME280;53798;51.680;5.976;2022-12-07T01:54:51;101676.25;;;2.04;100.00
66887;BME280;53798;51.680;5.976;2022-12-07T01:57:24;101678.78;;;1.99;100.00
66887;BME280;53798;51.680;5.976;2022-12-07T01:59:53;101679.59;;;1.96;100.00
66887;BME280;53798;51.680;5.976;2022-12-07T02:02:29;101674.38;;;1.93;100.00
66887;BME280;53798;51.680;5.976;2022-12-07T02:05:03;101669.94;;;1.91;100.00
66887;BME280;53798;51.680;5.976;2022-12-07T02:07:34;101664.66;;;1.86;100.00
66887;BME280;53798;51.680;5.976;2022-12-07T02:12:42;101664.50;;;1.78;100.00
66887;BME280;53798;51.680;5.976;2022-12-07T02:15:13;101665.31;;;1.74;100.00
66887;BME280;53798;51.680;5.976;2022-12-07T02:18:05;101665.25;;;1.71;100.00
66887;BME280;53798;51.680;5.976;2022-12-07T02:20:46;101661.72;;;1.67;100.00
66887;BME280;53798;51.680;5.976;2022-12-07T02:23:40;101672.13;;;1.67;100.00
66887;BME280;53798;51.680;5.976;2022-12-07T02:29:54;101669.59;;;1.70;100.00
66887;BME280;53798;51.680;5.976;2022-12-07T02:32:49;101672.13;;;1.69;100.00
66887;BME280;53798;51.680;5.976;2022-12-07T02:35:55;101673.84;;;1.67;100.00
66887;BME280;53798;51.680;5.976;2022-12-07T02:38:50;101665.09;;;1.63;100.00
66887;BME280;53798;51.680;5.976;2022-12-07T02:41:29;101678.06;;;1.62;100.00
66887;BME280;53798;51.680;5.976;2022-12-07T02:44:03;101674.66;;;1.64;100.00
66887;BME280;53798;51.680;5.976;2022-12-07T02:46:42;101676.41;;;1.65;100.00
66887;BME280;53798;51.680;5.976;2022-12-07T02:49:15;101664.22;;;1.63;100.00
66887;BME280;53798;51.680;5.976;2022-12-07T02:51:45;101665.97;;;1.62;100.00
66887;BME280;53798;51.680;5.976;2022-12-07T02:54:15;101665.91;;;1.61;100.00
66887;BME280;53798;51.680;5.976;2022-12-07T02:56:49;101670.19;;;1.59;100.00
66887;BME280;53798;51.680;5.976;2022-12-07T03:02:56;101676.16;;;1.53;100.00
66887;BME280;53798;51.680;5.976;2022-12-07T03:08:53;101662.28;;;1.51;100.00
66887;BME280;53798;51.680;5.976;2022-12-07T03:11:51;101668.34;;;1.51;100.00
66887;BME280;53798;51.680;5.976;2022-12-07T03:14:33;101667.38;;;1.46;100.00
66887;BME280;53798;51.680;5.976;2022-12-07T03:17:14;101676.03;;;1.45;100.00
66887;BME280;53798;51.680;5.976;2022-12-07T03:19:46;101673.38;;;1.44;100.00
66887;BME280;53798;51.680;5.976;2022-12-07T03:22:17;101675.09;;;1.42;100.00
66887;BME280;53798;51.680;5.976;2022-12-07T03:24:58;101679.41;;;1.43;100.00
66887;BME280;53798;51.680;5.976;2022-12-07T03:27:33;101668.97;;;1.39;100.00
66887;BME280;53798;51.680;5.976;2022-12-07T03:30:07;101666.31;;;1.38;100.00
66887;BME280;53798;51.680;5.976;2022-12-07T03:32:44;101668.97;;;1.39;100.00
66887;BME280;53798;51.680;5.976;2022-12-07T03:35:27;101667.19;;;1.37;100.00
66887;BME280;53798;51.680;5.976;2022-12-07T03:38:24;101663.63;;;1.33;100.00
66887;BME280;53798;51.680;5.976;2022-12-07T03:41:05;101665.34;;;1.31;100.00
66887;BME280;53798;51.680;5.976;2022-12-07T03:43:39;101657.47;;;1.28;100.00
66887;BME280;53798;51.680;5.976;2022-12-07T03:46:42;101661.84;;;1.31;100.00
66887;BME280;53798;51.680;5.976;2022-12-07T03:49:25;101660.16;;;1.33;100.00
66887;BME280;53798;51.680;5.976;2022-12-07T03:52:08;101654.22;;;1.38;100.00
66887;BME280;53798;51.680;5.976;2022-12-07T03:57:42;101653.47;;;1.44;100.00
66887;BME280;53798;51.680;5.976;2022-12-07T04:00:14;101662.09;;;1.42;100.00
66887;BME280;53798;51.680;5.976;2022-12-07T04:02:42;101665.53;;;1.42;100.00
66887;BME280;53798;51.680;5.976;2022-12-07T04:05:10;101654.38;;;1.46;100.00
66887;BME280;53798;51.680;5.976;2022-12-07T04:07:38;101661.44;;;1.53;100.00
66887;BME280;53798;51.680;5.976;2022-12-07T04:10:06;101659.09;;;1.66;100.00
66887;BME280;53798;51.680;5.976;2022-12-07T04:12:34;101655.78;;;1.73;100.00
66887;BME280;53798;51.680;5.976;2022-12-07T04:15:01;101647.22;;;1.80;100.00
66887;BME280;53798;51.680;5.976;2022-12-07T04:17:28;101644.72;;;1.85;100.00
66887;BME280;53798;51.680;5.976;2022-12-07T04:19:56;101638.72;;;1.89;100.00
66887;BME280;53798;51.680;5.976;2022-12-07T04:22:25;101644.88;;;1.94;100.00
66887;BME280;53798;51.680;5.976;2022-12-07T04:24:52;101641.50;;;1.98;100.00
66887;BME280;53798;51.680;5.976;2022-12-07T04:27:19;101637.25;;;2.04;100.00
66887;BME280;53798;51.680;5.976;2022-12-07T04:29:46;101642.50;;;2.07;100.00
66887;BME280;53798;51.680;5.976;2022-12-07T04:32:13;101642.56;;;2.10;100.00
66887;BME280;53798;51.680;5.976;2022-12-07T04:34:41;101643.47;;;2.12;100.00
66887;BME280;53798;51.680;5.976;2022-12-07T04:37:08;101648.69;;;2.12;100.00
66887;BME280;53798;51.680;5.976;2022-12-07T04:39:35;101634.84;;;2.16;100.00
66887;BME280;53798;51.680;5.976;2022-12-07T04:42:02;101638.38;;;2.20;100.00
66887;BME280;53798;51.680;5.976;2022-12-07T04:44:30;101634.13;;;2.23;100.00
66887;BME280;53798;51.680;5.976;2022-12-07T04:46:57;101635.00;;;2.25;100.00
66887;BME280;53798;51.680;5.976;2022-12-07T04:49:24;101628.97;;;2.26;100.00
66887;BME280;53798;51.680;5.976;2022-12-07T04:51:52;101631.56;;;2.26;100.00
66887;BME280;53798;51.680;5.976;2022-12-07T04:54:19;101626.34;;;2.25;100.00
66887;BME280;53798;51.680;5.976;2022-12-07T04:56:46;101627.19;;;2.24;100.00
66887;BME280;53798;51.680;5.976;2022-12-07T04:59:15;101626.31;;;2.23;100.00
66887;BME280;53798;51.680;5.976;2022-12-07T05:01:43;101628.94;;;2.25;100.00
66887;BME280;53798;51.680;5.976;2022-12-07T05:04:11;101624.59;;;2.24;100.00
66887;BME280;53798;51.680;5.976;2022-12-07T05:06:38;101622.84;;;2.23;100.00
66887;BME280;53798;51.680;5.976;2022-12-07T05:09:05;101627.13;;;2.21;100.00
66887;BME280;53798;51.680;5.976;2022-12-07T05:11:32;101626.28;;;2.22;100.00
66887;BME280;53798;51.680;5.976;2022-12-07T05:14:18;101627.19;;;2.24;100.00
66887;BME280;53798;51.680;5.976;2022-12-07T05:16:50;101633.31;;;2.26;100.00
66887;BME280;53798;51.680;5.976;2022-12-07T05:19:18;101628.13;;;2.27;100.00
66887;BME280;53798;51.680;5.976;2022-12-07T05:21:46;101627.25;;;2.28;100.00
66887;BME280;53798;51.680;5.976;2022-12-07T05:24:15;101625.56;;;2.29;100.00
66887;BME280;53798;51.680;5.976;2022-12-07T05:26:44;101627.25;;;2.27;100.00
66887;BME280;53798;51.680;5.976;2022-12-07T05:29:14;101633.31;;;2.26;100.00
66887;BME280;53798;51.680;5.976;2022-12-07T05:31:44;101625.41;;;2.21;100.00
66887;BME280;53798;51.680;5.976;2022-12-07T05:34:11;101630.53;;;2.16;100.00
66887;BME280;53798;51.680;5.976;2022-12-07T05:36:40;101638.22;;;2.09;100.00
66887;BME280;53798;51.680;5.976;2022-12-07T05:39:07;101631.19;;;2.03;100.00
66887;BME280;53798;51.680;5.976;2022-12-07T05:41:36;101632.84;;;1.99;100.00
66887;BME280;53798;51.680;5.976;2022-12-07T05:44:22;101634.53;;;1.97;100.00
66887;BME280;53798;51.680;5.976;2022-12-07T05:46:49;101636.31;;;2.00;100.00
66887;BME280;53798;51.680;5.976;2022-12-07T05:49:17;101632.94;;;2.06;100.00
66887;BME280;53798;51.680;5.976;2022-12-07T05:51:44;101629.56;;;2.10;100.00
66887;BME280;53798;51.680;5.976;2022-12-07T05:54:11;101631.28;;;2.09;100.00
66887;BME280;53798;51.680;5.976;2022-12-07T05:56:38;101626.00;;;2.05;100.00
66887;BME280;53798;51.680;5.976;2022-12-07T05:59:05;101627.66;;;2.01;100.00
66887;BME280;53798;51.680;5.976;2022-12-07T06:01:57;101627.56;;;1.95;100.00
66887;BME280;53798;51.680;5.976;2022-12-07T06:04:29;101619.59;;;1.85;100.00
66887;BME280;53798;51.680;5.976;2022-12-07T06:06:58;101620.28;;;1.77;100.00
66887;BME280;53798;51.680;5.976;2022-12-07T06:09:26;101628.84;;;1.71;100.00
66887;BME280;53798;51.680;5.976;2022-12-07T06:11:55;101625.31;;;1.66;100.00
66887;BME280;53798;51.680;5.976;2022-12-07T06:14:42;101621.88;;;1.67;100.00
66887;BME280;53798;51.680;5.976;2022-12-07T06:17:11;101619.25;;;1.67;100.00
66887;BME280;53798;51.680;5.976;2022-12-07T06:19:40;101621.78;;;1.64;100.00
66887;BME280;53798;51.680;5.976;2022-12-07T06:22:09;101627.81;;;1.61;100.00
66887;BME280;53798;51.680;5.976;2022-12-07T06:24:39;101625.13;;;1.57;100.00
66887;BME280;53798;51.680;5.976;2022-12-07T06:27:07;101635.53;;;1.57;100.00
66887;BME280;53798;51.680;5.976;2022-12-07T06:29:35;101632.88;;;1.55;100.00
66887;BME280;53798;51.680;5.976;2022-12-07T06:32:02;101628.56;;;1.55;100.00
66887;BME280;53798;51.680;5.976;2022-12-07T06:34:30;101631.19;;;1.57;100.00
66887;BME280;53798;51.680;5.976;2022-12-07T06:36:57;101625.16;;;1.60;100.00
66887;BME280;53798;51.680;5.976;2022-12-07T06:39:27;101635.63;;;1.63;100.00
66887;BME280;53798;51.680;5.976;2022-12-07T06:41:55;101633.94;;;1.65;100.00
66887;BME280;53798;51.680;5.976;2022-12-07T06:44:23;101638.25;;;1.63;100.00
66887;BME280;53798;51.680;5.976;2022-12-07T06:46:52;101638.16;;;1.60;100.00
66887;BME280;53798;51.680;5.976;2022-12-07T06:49:40;101634.56;;;1.53;100.00
66887;BME280;53798;51.680;5.976;2022-12-07T06:52:07;101642.34;;;1.51;100.00
66887;BME280;53798;51.680;5.976;2022-12-07T06:54:34;101635.38;;;1.49;100.00
66887;BME280;53798;51.680;5.976;2022-12-07T06:57:01;101635.28;;;1.44;100.00
66887;BME280;53798;51.680;5.976;2022-12-07T06:59:28;101638.72;;;1.43;100.00
66887;BME280;53798;51.680;5.976;2022-12-07T07:01:55;101637.81;;;1.41;100.00
66887;BME280;53798;51.680;5.976;2022-12-07T07:04:22;101630.09;;;1.44;100.00
66887;BME280;53798;51.680;5.976;2022-12-07T07:06:50;101632.75;;;1.47;100.00
66887;BME280;53798;51.680;5.976;2022-12-07T07:09:25;101625.84;;;1.49;100.00
66887;BME280;53798;51.680;5.976;2022-12-07T07:11:54;101629.31;;;1.50;100.00
66887;BME280;53798;51.680;5.976;2022-12-07T07:14:21;101625.81;;;1.48;100.00
66887;BME280;53798;51.680;5.976;2022-12-07T07:16:49;101633.59;;;1.46;100.00
66887;BME280;53798;51.680;5.976;2022-12-07T07:19:16;101636.22;;;1.48;100.00
66887;BME280;53798;51.680;5.976;2022-12-07T07:21:43;101637.16;;;1.51;100.00
66887;BME280;53798;51.680;5.976;2022-12-07T07:24:10;101645.03;;;1.56;100.00
66887;BME280;53798;51.680;5.976;2022-12-07T07:26:37;101647.63;;;1.56;100.00
66887;BME280;53798;51.680;5.976;2022-12-07T07:29:04;101651.16;;;1.60;100.00
66887;BME280;53798;51.680;5.976;2022-12-07T07:31:31;101646.91;;;1.63;100.00
66887;BME280;53798;51.680;5.976;2022-12-07T07:34:00;101650.47;;;1.67;100.00
66887;BME280;53798;51.680;5.976;2022-12-07T07:36:26;101651.34;;;1.69;100.00
66887;BME280;53798;51.680;5.976;2022-12-07T07:38:53;101653.94;;;1.69;100.00
66887;BME280;53798;51.680;5.976;2022-12-07T07:41:20;101659.13;;;1.69;100.00
66887;BME280;53798;51.680;5.976;2022-12-07T07:43:47;101653.06;;;1.68;100.00
66887;BME280;53798;51.680;5.976;2022-12-07T07:46:15;101652.25;;;1.71;100.00
66887;BME280;53798;51.680;5.976;2022-12-07T07:48:42;101655.00;;;1.77;100.00
66887;BME280;53798;51.680;5.976;2022-12-07T07:51:09;101660.28;;;1.83;100.00
66887;BME280;53798;51.680;5.976;2022-12-07T07:53:36;101652.59;;;1.90;100.00
66887;BME280;53798;51.680;5.976;2022-12-07T07:56:04;101649.19;;;1.92;100.00
66887;BME280;53798;51.680;5.976;2022-12-07T07:58:31;101643.09;;;1.92;100.00
66887;BME280;53798;51.680;5.976;2022-12-07T08:01:06;101647.44;;;1.91;100.00
66887;BME280;53798;51.680;5.976;2022-12-07T08:03:35;101649.16;;;1.91;100.00
66887;BME280;53798;51.680;5.976;2022-12-07T08:06:03;101652.66;;;1.93;100.00
66887;BME280;53798;51.680;5.976;2022-12-07T08:08:30;101647.53;;;1.96;100.00
66887;BME280;53798;51.680;5.976;2022-12-07T08:10:58;101645.03;;;2.02;100.00
66887;BME280;53798;51.680;5.976;2022-12-07T08:13:27;101646.84;;;2.06;100.00
66887;BME280;53798;51.680;5.976;2022-12-07T08:15:57;101653.00;;;2.11;100.00
66887;BME280;53798;51.680;5.976;2022-12-07T08:18:25;101646.16;;;2.16;100.00
66887;BME280;53798;51.680;5.976;2022-12-07T08:20:52;101651.44;;;2.21;100.00
66887;BME280;53798;51.680;5.976;2022-12-07T08:23:26;101654.94;;;2.23;100.00
66887;BME280;53798;51.680;5.976;2022-12-07T08:26:07;101650.53;;;2.21;100.00
66887;BME280;53798;51.680;5.976;2022-12-07T08:28:36;101651.41;;;2.20;100.00
66887;BME280;53798;51.680;5.976;2022-12-07T08:31:10;101657.50;;;2.20;100.00
66887;BME280;53798;51.680;5.976;2022-12-07T08:33:40;101654.81;;;2.17;100.00
66887;BME280;53798;51.680;5.976;2022-12-07T08:36:09;101656.50;;;2.15;100.00
66887;BME280;53798;51.680;5.976;2022-12-07T08:38:39;101662.53;;;2.12;100.00
66887;BME280;53798;51.680;5.976;2022-12-07T08:41:22;101662.47;;;2.09;100.00
66887;BME280;53798;51.680;5.976;2022-12-07T08:43:51;101666.81;;;2.07;100.00
66887;BME280;53798;51.680;5.976;2022-12-07T08:46:28;101666.81;;;2.07;100.00
66887;BME280;53798;51.680;5.976;2022-12-07T08:49:08;101672.00;;;2.07;100.00
66887;BME280;53798;51.680;5.976;2022-12-07T08:51:40;101669.41;;;2.07;100.00
66887;BME280;53798;51.680;5.976;2022-12-07T08:54:15;101663.47;;;2.14;100.00
66887;BME280;53798;51.680;5.976;2022-12-07T08:56:45;101662.69;;;2.19;100.00
66887;BME280;53798;51.680;5.976;2022-12-07T08:59:20;101669.75;;;2.27;100.00
66887;BME280;53798;51.680;5.976;2022-12-07T09:01:47;101662.06;;;2.33;100.00
66887;BME280;53798;51.680;5.976;2022-12-07T09:04:15;101658.72;;;2.41;100.00
66887;BME280;53798;51.680;5.976;2022-12-07T09:06:42;101663.16;;;2.49;100.00
66887;BME280;53798;51.680;5.976;2022-12-07T09:09:11;101665.03;;;2.57;100.00
66887;BME280;53798;51.680;5.976;2022-12-07T09:11:40;101668.56;;;2.59;100.00
66887;BME280;53798;51.680;5.976;2022-12-07T09:14:08;101662.59;;;2.68;100.00
66887;BME280;53798;51.680;5.976;2022-12-07T09:16:35;101659.34;;;2.81;100.00
66887;BME280;53798;51.680;5.976;2022-12-07T09:19:03;101665.66;;;2.99;100.00
66887;BME280;53798;51.680;5.976;2022-12-07T09:21:30;101665.91;;;3.17;100.00
66887;BME280;53798;51.680;5.976;2022-12-07T09:24:04;101666.97;;;3.30;100.00
66887;BME280;53798;51.680;5.976;2022-12-07T09:26:31;101665.22;;;3.32;100.00
66887;BME280;53798;51.680;5.976;2022-12-07T09:28:58;101669.59;;;3.33;100.00
66887;BME280;53798;51.680;5.976;2022-12-07T09:31:25;101671.34;;;3.36;100.00
66887;BME280;53798;51.680;5.976;2022-12-07T09:33:57;101667.94;;;3.38;100.00
66887;BME280;53798;51.680;5.976;2022-12-07T09:36:27;101676.69;;;3.44;100.00
66887;BME280;53798;51.680;5.976;2022-12-07T09:38:55;101673.31;;;3.51;100.00
66887;BME280;53798;51.680;5.976;2022-12-07T09:41:24;101670.81;;;3.60;100.00
66887;BME280;53798;51.680;5.976;2022-12-07T09:43:58;101672.69;;;3.72;100.00
66887;BME280;53798;51.680;5.976;2022-12-07T09:46:36;101663.19;;;3.82;100.00
66887;BME280;53798;51.680;5.976;2022-12-07T09:49:19;101659.78;;;3.86;100.00
66887;BME280;53798;51.680;5.976;2022-12-07T09:51:55;101656.31;;;3.87;100.00
66887;BME280;53798;51.680;5.976;2022-12-07T09:54:30;101664.22;;;3.95;100.00
66887;BME280;53798;51.680;5.976;2022-12-07T09:56:58;101664.31;;;4.06;100.00
66887;BME280;53798;51.680;5.976;2022-12-07T09:59:25;101655.81;;;4.22;100.00
66887;BME280;53798;51.680;5.976;2022-12-07T10:02:36;101653.34;;;4.42;100.00
66887;BME280;53798;51.680;5.976;2022-12-07T10:05:06;101649.09;;;4.55;100.00
66887;BME280;53798;51.680;5.976;2022-12-07T10:07:44;101652.63;;;4.60;100.00
66887;BME280;53798;51.680;5.976;2022-12-07T10:10:15;101656.13;;;4.65;100.00
66887;BME280;53798;51.680;5.976;2022-12-07T10:13:07;101648.28;;;4.65;100.00
66887;BME280;53798;51.680;5.976;2022-12-07T10:15:56;101646.53;;;4.64;100.00
66887;BME280;53798;51.680;5.976;2022-12-07T10:18:33;101635.22;;;4.64;100.00
66887;BME280;53798;51.680;5.976;2022-12-07T10:23:36;101632.63;;;4.65;99.93
66887;BME280;53798;51.680;5.976;2022-12-07T10:32:44;101627.59;;;4.95;98.34
66887;BME280;53798;51.680;5.976;2022-12-07T10:35:19;101617.16;;;5.01;97.71
66887;BME280;53798;51.680;5.976;2022-12-07T10:37:47;101611.06;;;5.02;98.22
66887;BME280;53798;51.680;5.976;2022-12-07T10:40:27;101606.75;;;5.07;98.46
66887;BME280;53798;51.680;5.976;2022-12-07T10:51:47;101603.41;;;5.46;97.29
66887;BME280;53798;51.680;5.976;2022-12-07T10:58:07;101600.84;;;5.63;94.45
66887;BME280;53798;51.680;5.976;2022-12-07T11:01:04;101593.00;;;5.69;93.33
66887;BME280;53798;51.680;5.976;2022-12-07T11:06:24;101590.41;;;5.83;91.62
66887;BME280;53798;51.680;5.976;2022-12-07T11:09:22;101593.03;;;5.90;90.69
66887;BME280;53798;51.680;5.976;2022-12-07T11:18:32;101574.78;;;6.03;88.65
66887;BME280;53798;51.680;5.976;2022-12-07T11:21:20;101566.91;;;6.09;88.33
66887;BME280;53798;51.680;5.976;2022-12-07T11:24:08;101567.78;;;6.16;87.48
66887;BME280;53798;51.680;5.976;2022-12-07T11:29:36;101568.63;;;6.21;86.82
66887;BME280;53798;51.680;5.976;2022-12-07T11:35:08;101559.94;;;6.16;86.17
66887;BME280;53798;51.680;5.976;2022-12-07T11:37:45;101553.81;;;6.14;87.61
66887;BME280;53798;51.680;5.976;2022-12-07T11:40:18;101550.34;;;6.13;85.80
66887;BME280;53798;51.680;5.976;2022-12-07T11:42:55;101556.44;;;6.12;86.79
66887;BME280;53798;51.680;5.976;2022-12-07T11:45:47;101547.72;;;6.15;88.11
66887;BME280;53798;51.680;5.976;2022-12-07T11:48:45;101546.84;;;6.16;86.05
66887;BME280;53798;51.680;5.976;2022-12-07T11:51:20;101544.22;;;6.10;86.16
66887;BME280;53798;51.680;5.976;2022-12-07T11:53:53;101545.09;;;6.09;86.63
66887;BME280;53798;51.680;5.976;2022-12-07T11:56:26;101542.47;;;6.07;86.85
66887;BME280;53798;51.680;5.976;2022-12-07T11:59:08;101544.22;;;6.05;86.33
66887;BME280;53798;51.680;5.976;2022-12-07T12:02:02;101544.22;;;6.03;86.38
66887;BME280;53798;51.680;5.976;2022-12-07T12:04:52;101549.47;;;6.05;86.67
66887;BME280;53798;51.680;5.976;2022-12-07T12:07:26;101544.22;;;6.05;86.56
66887;BME280;53798;51.680;5.976;2022-12-07T12:10:16;101538.97;;;6.03;87.32
66887;BME280;53798;51.680;5.976;2022-12-07T12:16:41;101535.50;;;6.08;86.78
66887;BME280;53798;51.680;5.976;2022-12-07T12:19:57;101532.88;;;6.12;87.16
66887;BME280;53798;51.680;5.976;2022-12-07T12:22:44;101524.16;;;6.15;87.22
66887;BME280;53798;51.680;5.976;2022-12-07T12:25:29;101521.53;;;6.18;86.99
66887;BME280;53798;51.680;5.976;2022-12-07T12:28:29;101526.75;;;6.21;86.86
66887;BME280;53798;51.680;5.976;2022-12-07T12:31:29;101521.53;;;6.22;86.88
66887;BME280;53798;51.680;5.976;2022-12-07T12:34:01;101518.00;;;6.22;87.13
66887;BME280;53798;51.680;5.976;2022-12-07T12:55:17;101500.59;;;6.10;85.09
66887;BME280;53798;51.680;5.976;2022-12-07T13:04:24;101505.81;;;5.90;86.07
66887;BME280;53798;51.680;5.976;2022-12-07T13:06:55;101494.47;;;5.88;85.99
66887;BME280;53798;51.680;5.976;2022-12-07T13:09:25;101490.09;;;5.85;86.23
66887;BME280;53798;51.680;5.976;2022-12-07T13:12:01;101490.09;;;5.81;86.94
66887;BME280;53798;51.680;5.976;2022-12-07T13:14:52;101487.47;;;5.79;87.40
66887;BME280;53798;51.680;5.976;2022-12-07T13:20:05;101476.16;;;5.71;87.56
66887;BME280;53798;51.680;5.976;2022-12-07T13:22:44;101475.28;;;5.64;87.40
66887;BME280;53798;51.680;5.976;2022-12-07T13:25:35;101477.03;;;5.56;87.14
66887;BME280;53798;51.680;5.976;2022-12-07T13:28:18;101470.91;;;5.48;87.24
66887;BME280;53798;51.680;5.976;2022-12-07T13:30:58;101463.06;;;5.44;87.58
66887;BME280;53798;51.680;5.976;2022-12-07T13:33:34;101466.56;;;5.47;87.72
66887;BME280;53798;51.680;5.976;2022-12-07T13:36:02;101465.66;;;5.46;87.85
66887;BME280;53798;51.680;5.976;2022-12-07T13:38:33;101460.44;;;5.51;87.83
66887;BME280;53798;51.680;5.976;2022-12-07T13:41:15;101450.84;;;5.53;87.76
66887;BME280;53798;51.680;5.976;2022-12-07T13:43:46;101445.63;;;5.56;87.81
66887;BME280;53798;51.680;5.976;2022-12-07T13:46:19;101437.78;;;5.60;87.78
66887;BME280;53798;51.680;5.976;2022-12-07T13:48:55;101436.91;;;5.63;87.37
66887;BME280;53798;51.680;5.976;2022-12-07T13:51:25;101442.13;;;5.65;87.06
66887;BME280;53798;51.680;5.976;2022-12-07T13:54:01;101445.63;;;5.65;86.91
66887;BME280;53798;51.680;5.976;2022-12-07T13:56:36;101440.41;;;5.64;85.77
66887;BME280;53798;51.680;5.976;2022-12-07T13:59:10;101445.63;;;5.64;86.14
66887;BME280;53798;51.680;5.976;2022-12-07T14:01:45;101436.03;;;5.61;85.64
66887;BME280;53798;51.680;5.976;2022-12-07T14:04:36;101427.31;;;5.62;85.59
66887;BME280;53798;51.680;5.976;2022-12-07T14:07:24;101429.94;;;5.56;84.60
66887;BME280;53798;51.680;5.976;2022-12-07T14:10:05;101425.56;;;5.50;85.35
66887;BME280;53798;51.680;5.976;2022-12-07T14:12:36;101426.44;;;5.49;85.57
66887;BME280;53798;51.680;5.976;2022-12-07T14:15:04;101419.47;;;5.42;86.42
66887;BME280;53798;51.680;5.976;2022-12-07T14:17:32;101420.31;;;5.35;86.56
66887;BME280;53798;51.680;5.976;2022-12-07T14:20:01;101423.81;;;5.27;86.90
66887;BME280;53798;51.680;5.976;2022-12-07T14:22:36;101422.94;;;5.22;87.10
66887;BME280;53798;51.680;5.976;2022-12-07T14:25:17;101416.84;;;5.16;86.80
66887;BME280;53798;51.680;5.976;2022-12-07T14:28:00;101422.03;;;5.09;87.44
66887;BME280;53798;51.680;5.976;2022-12-07T14:30:29;101415.06;;;5.02;87.39
66887;BME280;53798;51.680;5.976;2022-12-07T14:33:03;101408.97;;;4.98;87.78
66887;BME280;53798;51.680;5.976;2022-12-07T14:35:32;101415.03;;;4.94;87.58
66887;BME280;53798;51.680;5.976;2022-12-07T14:37:59;101406.31;;;4.91;87.67
66887;BME280;53798;51.680;5.976;2022-12-07T14:40:28;101398.47;;;4.86;88.01
66887;BME280;53798;51.680;5.976;2022-12-07T14:45:31;101406.31;;;4.81;89.34
66887;BME280;53798;51.680;5.976;2022-12-07T14:47:58;101400.22;;;4.82;89.39
66887;BME280;53798;51.680;5.976;2022-12-07T14:50:49;101401.97;;;4.85;90.12
66887;BME280;53798;51.680;5.976;2022-12-07T14:53:42;101399.38;;;4.87;90.53
66887;BME280;53798;51.680;5.976;2022-12-07T14:56:19;101397.63;;;4.90;91.02
66887;BME280;53798;51.680;5.976;2022-12-07T14:58:46;101393.28;;;4.94;91.39